Time;durP1;ratioP1;P1;durP2;ratioP2;P2;SDS_P1;SDS_P2;PMS_P1;PMS_P2;Temp;Humidity;BMP_temperature;BMP_pressure;BME280_temperature;BME280_humidity;BME280_pressure;Samples;Min_cycle;Max_cycle;Signal;HPM_P1;HPM_P2
2022/03/01 00:01:04;;;;;;;0.80;0.80;;;0.30;1.00;;;;;;5069696;28;20739;-73
2022/03/01 00:03:29;;;;;;;0.90;0.90;;;0.30;1.00;;;;;;5069490;28;20170;-74
2022/03/01 00:05:55;;;;;;;0.80;0.80;;;0.30;1.00;;;;;;5069916;28;20224;-74
2022/03/01 00:08:20;;;;;;;0.90;0.90;;;0.50;1.00;;;;;;5069607;28;20170;-74
2022/03/01 00:10:46;;;;;;;0.90;0.90;;;0.50;1.00;;;;;;5068919;28;20535;-74
2022/03/01 00:13:11;;;;;;;0.90;0.90;;;0.50;1.00;;;;;;5072857;28;20604;-74
2022/03/01 00:15:37;;;;;;;0.90;0.90;;;0.50;1.00;;;;;;5073442;28;20182;-74
2022/03/01 00:18:03;;;;;;;0.90;0.90;;;0.50;1.00;;;;;;5073445;28;20190;-75
2022/03/01 00:20:28;;;;;;;1.00;1.00;;;0.50;1.00;;;;;;5078521;28;20191;-74
2022/03/01 00:22:54;;;;;;;0.90;0.90;;;0.40;1.00;;;;;;5079606;28;20235;-73
2022/03/01 00:25:20;;;;;;;0.90;0.90;;;0.50;1.00;;;;;;5081711;28;20277;-74
2022/03/01 00:27:45;;;;;;;0.90;0.90;;;0.50;1.00;;;;;;5080322;28;20185;-75
2022/03/01 00:30:11;;;;;;;0.80;0.80;;;0.50;1.00;;;;;;5077086;28;20198;-74
2022/03/01 00:32:37;;;;;;;0.87;0.87;;;0.50;1.00;;;;;;5073833;28;20577;-75
2022/03/01 00:35:03;;;;;;;0.90;0.90;;;0.40;1.00;;;;;;5073226;28;20639;-74
2022/03/01 00:37:28;;;;;;;0.90;0.90;;;0.50;1.00;;;;;;5072873;28;20175;-75
2022/03/01 00:39:54;;;;;;;0.80;0.80;;;0.50;1.00;;;;;;5072509;28;20617;-73
2022/03/01 00:42:19;;;;;;;0.90;0.90;;;0.40;1.00;;;;;;5072990;28;20250;-74
2022/03/01 00:44:45;;;;;;;0.90;0.90;;;0.40;1.00;;;;;;5072897;28;20253;-73
2022/03/01 00:47:10;;;;;;;0.87;0.87;;;0.30;1.00;;;;;;5072907;28;20166;-75
2022/03/01 00:49:36;;;;;;;0.93;0.93;;;0.30;1.00;;;;;;5072242;28;20194;-74
2022/03/01 00:52:02;;;;;;;0.90;0.90;;;0.10;1.00;;;;;;5072488;28;20171;-75
2022/03/01 00:54:27;;;;;;;0.93;0.93;;;0.00;1.00;;;;;;5072361;28;20171;-74
2022/03/01 00:56:53;;;;;;;0.83;0.83;;;0.00;1.00;;;;;;5072503;28;20645;-73
2022/03/01 00:59:18;;;;;;;0.87;0.87;;;0.10;1.00;;;;;;5072182;28;20214;-75
2022/03/01 01:01:44;;;;;;;1.00;1.00;;;0.10;1.00;;;;;;5072526;28;20177;-74
2022/03/01 01:04:09;;;;;;;0.80;0.80;;;0.10;1.00;;;;;;5111046;22;20186;-76
2022/03/01 01:06:35;;;;;;;0.90;0.90;;;-0.10;92.10;;;;;;5053730;28;20195;-78
2022/03/01 01:09:00;;;;;;;0.90;0.90;;;-0.50;99.90;;;;;;5052792;28;20220;-78
2022/03/01 01:11:26;;;;;;;1.00;1.00;;;-0.50;1.00;;;;;;5053855;28;20186;-75
2022/03/01 01:13:51;;;;;;;0.80;0.80;;;-0.80;1.00;;;;;;5053906;28;20391;-78
2022/03/01 01:16:17;;;;;;;0.90;0.90;;;-0.90;99.90;;;;;;5053768;28;20179;-77
2022/03/01 01:18:43;;;;;;;1.00;1.00;;;-1.00;1.00;;;;;;5053598;28;20547;-74
2022/03/01 01:21:13;;;;;;;0.90;0.90;;;-0.70;39.60;;;;;;5052430;28;20639;-75
2022/03/01 01:23:39;;;;;;;0.93;0.93;;;-0.80;99.90;;;;;;5051466;28;20190;-75
2022/03/01 01:26:04;;;;;;;0.90;0.90;;;-0.90;99.90;;;;;;5052932;28;20210;-74
2022/03/01 01:28:30;;;;;;;0.90;0.90;;;-0.90;99.90;;;;;;5052851;28;20225;-75
2022/03/01 01:30:56;;;;;;;1.00;1.00;;;-0.90;99.90;;;;;;5052237;28;20191;-75
2022/03/01 01:33:21;;;;;;;0.80;0.80;;;-0.90;99.90;;;;;;5052884;28;20196;-75
2022/03/01 01:35:47;;;;;;;0.90;0.90;;;-1.00;1.00;;;;;;5052771;28;20201;-75
2022/03/01 01:38:13;;;;;;;0.90;0.90;;;-1.10;1.00;;;;;;5052253;28;20620;-73
2022/03/01 01:40:38;;;;;;;0.93;0.93;;;-1.00;99.90;;;;;;5051958;28;20281;-75
2022/03/01 01:43:05;;;;;;;1.00;1.00;;;-1.00;99.90;;;;;;5052541;28;20640;-75
2022/03/01 01:45:30;;;;;;;0.90;0.90;;;-0.80;1.00;;;;;;5052224;28;20568;-76
2022/03/01 01:47:58;;;;;;;1.00;1.00;;;-0.80;1.00;;;;;;5052339;28;20168;-74
2022/03/01 01:50:24;;;;;;;0.90;0.90;;;-0.80;1.00;;;;;;5051704;28;20199;-75
2022/03/01 01:52:51;;;;;;;1.00;1.00;;;-1.00;41.30;;;;;;5052528;28;20502;-75
2022/03/01 01:55:19;;;;;;;0.90;0.90;;;-1.20;1.00;;;;;;5052346;28;20277;-76
2022/03/01 01:57:45;;;;;;;0.90;0.90;;;-1.50;99.90;;;;;;5052388;28;20171;-75
2022/03/01 02:00:11;;;;;;;0.90;0.90;;;-1.50;1.00;;;;;;5051651;28;20242;-76
2022/03/01 02:02:38;;;;;;;1.10;1.10;;;-1.40;99.90;;;;;;5051894;28;20244;-76
2022/03/01 02:05:04;;;;;;;0.90;0.90;;;-1.40;99.90;;;;;;5051747;28;20225;-74
2022/03/01 02:07:29;;;;;;;1.00;1.00;;;-1.20;1.00;;;;;;5051912;28;20254;-75
2022/03/01 02:09:55;;;;;;;0.90;0.90;;;-1.20;1.00;;;;;;5051498;28;20454;-74
2022/03/01 02:12:21;;;;;;;0.90;0.90;;;-1.40;99.90;;;;;;5051939;28;20168;-76
2022/03/01 02:14:47;;;;;;;1.00;1.00;;;-1.40;99.90;;;;;;5052110;28;20286;-75
2022/03/01 02:17:13;;;;;;;0.90;0.90;;;-1.40;1.00;;;;;;5051877;28;20172;-75
2022/03/01 02:19:46;;;;;;;0.90;0.90;;;-1.40;99.90;;;;;;5051707;28;20199;-77
2022/03/01 02:22:11;;;;;;;1.10;1.10;;;-1.40;99.90;;;;;;5051667;28;20582;-75
2022/03/01 02:24:37;;;;;;;0.90;0.90;;;-1.40;38.80;;;;;;5051889;28;20202;-75
2022/03/01 02:27:04;;;;;;;0.93;0.93;;;-1.40;99.90;;;;;;5051849;28;20167;-76
2022/03/01 02:29:32;;;;;;;0.90;0.90;;;-1.50;74.20;;;;;;5051161;28;20281;-75
2022/03/01 02:32:00;;;;;;;1.00;1.00;;;-1.50;27.10;;;;;;5051458;28;20167;-76
2022/03/01 02:34:25;;;;;;;0.90;0.90;;;-1.70;99.90;;;;;;5051040;28;20211;-76
2022/03/01 02:36:51;;;;;;;0.90;0.90;;;-1.70;99.90;;;;;;5051744;28;20556;-74
2022/03/01 02:39:16;;;;;;;1.00;1.00;;;-1.80;1.00;;;;;;5051217;28;20290;-76
2022/03/01 02:41:44;;;;;;;0.90;0.90;;;-1.90;1.00;;;;;;5051385;28;20206;-76
2022/03/01 02:44:11;;;;;;;1.20;1.20;;;-1.80;99.90;;;;;;5050929;28;20179;-75
2022/03/01 02:46:37;;;;;;;0.90;0.90;;;-1.90;99.90;;;;;;5051377;28;20191;-76
2022/03/01 02:49:03;;;;;;;1.00;1.00;;;-2.00;99.90;;;;;;5050687;28;20186;-75
2022/03/01 02:51:29;;;;;;;0.90;0.90;;;-2.00;99.90;;;;;;5052073;28;20207;-76
2022/03/01 02:53:55;;;;;;;0.90;0.90;;;-2.10;99.90;;;;;;5052275;28;20628;-77
2022/03/01 02:56:20;;;;;;;0.90;0.90;;;-2.10;16.20;;;;;;5053506;28;20600;-77
2022/03/01 02:58:46;;;;;;;0.90;0.90;;;-2.20;99.90;;;;;;5052122;28;20194;-76
2022/03/01 03:01:12;;;;;;;1.00;1.00;;;-2.10;99.90;;;;;;5051407;28;20204;-76
2022/03/01 03:03:38;;;;;;;0.90;0.90;;;-2.10;99.90;;;;;;5050858;28;20186;-74
2022/03/01 03:06:04;;;;;;;1.00;1.00;;;-2.10;99.90;;;;;;5051953;28;20220;-76
2022/03/01 03:08:30;;;;;;;1.00;1.00;;;-2.10;21.00;;;;;;5050915;28;20175;-76
2022/03/01 03:10:56;;;;;;;0.93;0.93;;;-1.90;1.00;;;;;;5050608;28;20225;-76
2022/03/01 03:13:21;;;;;;;0.97;0.97;;;-1.90;1.00;;;;;;5050791;28;20221;-76
2022/03/01 03:15:47;;;;;;;1.00;1.00;;;-1.80;99.90;;;;;;5050941;28;20361;-76
2022/03/01 03:18:14;;;;;;;0.90;0.90;;;-1.80;60.80;;;;;;5050868;28;20226;-76
2022/03/01 03:20:40;;;;;;;1.10;1.10;;;-1.80;1.00;;;;;;5049961;28;20664;-75
2022/03/01 03:23:06;;;;;;;0.90;0.90;;;-2.30;1.00;;;;;;5050782;28;20223;-77
2022/03/01 03:25:32;;;;;;;1.00;1.00;;;-2.50;1.00;;;;;;5050743;28;20787;-76
2022/03/01 03:27:59;;;;;;;0.90;0.90;;;-2.60;99.90;;;;;;5050930;28;20213;-77
2022/03/01 03:30:24;;;;;;;1.00;1.00;;;-2.60;99.90;;;;;;5050224;28;20199;-76
2022/03/01 03:32:50;;;;;;;1.00;1.00;;;-2.70;99.90;;;;;;5050818;28;20269;-76
2022/03/01 03:35:15;;;;;;;1.00;1.00;;;-2.70;1.00;;;;;;5051208;28;20178;-75
2022/03/01 03:37:41;;;;;;;1.00;1.00;;;-2.80;1.00;;;;;;5051719;28;20655;-76
2022/03/01 03:40:08;;;;;;;0.90;0.90;;;-2.90;1.00;;;;;;5052073;28;20203;-77
2022/03/01 03:42:35;;;;;;;1.00;1.00;;;-3.00;16.90;;;;;;5050417;28;20562;-77
2022/03/01 03:45:00;;;;;;;0.93;0.93;;;-2.80;1.00;;;;;;5051443;28;20211;-77
2022/03/01 03:47:26;;;;;;;1.00;1.00;;;-2.90;1.00;;;;;;5056836;28;20179;-77
2022/03/01 03:49:52;;;;;;;1.00;1.00;;;-2.80;1.00;;;;;;5057235;28;20199;-76
2022/03/01 03:52:17;;;;;;;1.00;1.00;;;-2.70;1.00;;;;;;5055311;28;20221;-76
2022/03/01 03:54:43;;;;;;;0.90;0.90;;;-3.00;99.90;;;;;;5054796;28;20218;-76
2022/03/01 03:57:08;;;;;;;0.90;0.90;;;-3.00;34.70;;;;;;5054889;28;20586;-77
2022/03/01 03:59:39;;;;;;;0.90;0.90;;;-3.00;99.90;;;;;;5054573;28;20206;-76
2022/03/01 04:02:06;;;;;;;1.00;1.00;;;-3.00;99.90;;;;;;5054877;28;20258;-77
2022/03/01 04:04:33;;;;;;;0.90;0.90;;;-3.10;99.90;;;;;;5054463;28;20278;-77
2022/03/01 04:06:58;;;;;;;1.00;1.00;;;-3.10;99.90;;;;;;5054950;28;20593;-75
2022/03/01 04:09:24;;;;;;;0.90;0.90;;;-3.10;99.90;;;;;;5053741;28;20203;-76
2022/03/01 04:11:49;;;;;;;0.90;0.90;;;-3.00;1.00;;;;;;5054339;28;20312;-77
2022/03/01 04:14:17;;;;;;;1.00;1.00;;;-3.10;1.00;;;;;;5053965;28;20202;-75
2022/03/01 04:16:43;;;;;;;0.90;0.90;;;-3.10;1.00;;;;;;5053965;28;20187;-76
2022/03/01 04:19:09;;;;;;;0.90;0.90;;;-3.10;1.00;;;;;;5053687;28;20264;-76
2022/03/01 04:21:35;;;;;;;0.90;0.90;;;-3.10;1.00;;;;;;5054216;28;20283;-77
2022/03/01 04:24:01;;;;;;;0.90;0.90;;;-3.00;99.90;;;;;;5054427;28;20201;-76
2022/03/01 04:26:27;;;;;;;0.80;0.80;;;-2.90;99.90;;;;;;5054050;28;20652;-77
2022/03/01 04:28:53;;;;;;;1.00;1.00;;;-2.90;48.50;;;;;;5053680;28;20262;-75
2022/03/01 04:31:19;;;;;;;0.93;0.93;;;-3.00;1.00;;;;;;5053578;28;20172;-76
2022/03/01 04:33:44;;;;;;;1.00;1.00;;;-3.00;99.90;;;;;;5053960;28;20653;-77
2022/03/01 04:36:10;;;;;;;0.93;0.93;;;-3.00;1.00;;;;;;5054125;28;20218;-77
2022/03/01 04:38:37;;;;;;;0.90;0.90;;;-3.10;1.00;;;;;;5054203;28;20171;-77
2022/03/01 04:41:03;;;;;;;0.90;0.90;;;-3.00;1.00;;;;;;5053604;28;20202;-76
2022/03/01 04:43:28;;;;;;;0.90;0.90;;;-3.20;1.00;;;;;;5053870;28;20218;-76
2022/03/01 04:45:54;;;;;;;0.90;0.90;;;-3.20;1.00;;;;;;5053535;28;20199;-77
2022/03/01 04:48:20;;;;;;;0.90;0.90;;;-3.10;1.00;;;;;;5054068;28;20190;-75
2022/03/01 04:50:46;;;;;;;0.90;0.90;;;-3.20;1.00;;;;;;5052709;28;20195;-75
2022/03/01 04:53:11;;;;;;;0.97;0.97;;;-3.20;1.00;;;;;;5053077;28;20190;-73
2022/03/01 04:55:37;;;;;;;1.00;1.00;;;-3.20;99.90;;;;;;5053054;28;20210;-75
2022/03/01 04:58:03;;;;;;;1.00;1.00;;;-3.30;1.00;;;;;;5052734;28;20328;-74
2022/03/01 05:00:29;;;;;;;0.90;0.90;;;-3.20;1.00;;;;;;5052389;28;20195;-75
2022/03/01 05:02:55;;;;;;;0.80;0.80;;;-3.00;99.90;;;;;;5053918;28;20649;-74
2022/03/01 05:05:20;;;;;;;0.80;0.80;;;-3.10;1.00;;;;;;5053662;28;20183;-76
2022/03/01 05:07:48;;;;;;;0.90;0.90;;;-3.00;99.90;;;;;;5053601;28;20547;-76
2022/03/01 05:10:17;;;;;;;0.90;0.90;;;-3.00;99.90;;;;;;5053132;28;20187;-74
2022/03/01 05:12:54;;;;;;;0.90;0.90;;;-3.20;1.00;;;;;;5053661;28;20175;-75
2022/03/01 05:15:22;;;;;;;1.00;1.00;;;-3.20;1.00;;;;;;5053770;28;20222;-75
2022/03/01 05:17:48;;;;;;;0.90;0.90;;;-3.10;99.90;;;;;;5053835;28;20175;-76
2022/03/01 05:20:15;;;;;;;0.90;0.90;;;-3.00;99.90;;;;;;5053306;28;20245;-75
2022/03/01 05:22:42;;;;;;;0.80;0.80;;;-3.10;99.90;;;;;;5052613;28;20170;-76
2022/03/01 05:25:12;;;;;;;0.80;0.80;;;-3.10;99.90;;;;;;5052790;28;20204;-75
2022/03/01 05:27:39;;;;;;;0.90;0.90;;;-3.20;1.00;;;;;;5053157;28;20175;-73
2022/03/01 05:30:07;;;;;;;0.90;0.90;;;-3.20;1.00;;;;;;5051930;28;20244;-76
2022/03/01 05:32:34;;;;;;;0.80;0.80;;;-2.80;1.00;;;;;;5052511;28;21856;-76
2022/03/01 05:35:00;;;;;;;0.80;0.80;;;-2.70;1.00;;;;;;5051256;28;20248;-75
2022/03/01 05:37:25;;;;;;;0.80;0.80;;;-2.70;1.00;;;;;;5054031;28;20583;-76
2022/03/01 05:39:51;;;;;;;0.97;0.97;;;-2.80;1.00;;;;;;5052658;28;20191;-76
2022/03/01 05:42:16;;;;;;;0.90;0.90;;;-3.10;99.90;;;;;;5054020;28;20179;-76
2022/03/01 05:44:42;;;;;;;0.80;0.80;;;-3.20;99.90;;;;;;5053204;28;20517;-76
2022/03/01 05:47:08;;;;;;;0.80;0.80;;;-3.30;99.90;;;;;;5053136;28;20175;-76
2022/03/01 05:49:33;;;;;;;0.90;0.90;;;-3.40;1.00;;;;;;5052593;28;20206;-75
2022/03/01 05:51:59;;;;;;;0.90;0.90;;;-3.40;1.00;;;;;;5053087;28;20656;-75
2022/03/01 05:54:25;;;;;;;0.83;0.83;;;-3.40;1.00;;;;;;5052722;28;20606;-75
2022/03/01 05:56:51;;;;;;;0.90;0.90;;;-3.40;1.00;;;;;;5052032;28;20180;-75
2022/03/01 05:59:16;;;;;;;0.80;0.80;;;-3.30;1.00;;;;;;5052710;28;20195;-75
2022/03/01 06:01:42;;;;;;;0.80;0.80;;;-3.30;1.00;;;;;;5052974;28;20202;-75
2022/03/01 06:04:07;;;;;;;0.80;0.80;;;-3.30;1.00;;;;;;5052696;28;20163;-75
2022/03/01 06:06:33;;;;;;;0.90;0.90;;;-3.40;1.00;;;;;;5052722;28;20600;-76
2022/03/01 06:08:58;;;;;;;0.90;0.90;;;-3.40;1.00;;;;;;5051725;28;20198;-76
2022/03/01 06:11:24;;;;;;;0.80;0.80;;;-3.40;1.00;;;;;;5052618;28;20229;-76
2022/03/01 06:13:49;;;;;;;0.90;0.90;;;-3.30;1.00;;;;;;5053309;28;20187;-77
2022/03/01 06:16:15;;;;;;;1.00;1.00;;;-3.20;99.90;;;;;;5052886;28;20250;-76
2022/03/01 06:18:40;;;;;;;0.90;0.90;;;-3.10;1.00;;;;;;5052709;28;20179;-76
2022/03/01 06:21:06;;;;;;;1.00;1.00;;;-3.00;1.00;;;;;;5052888;28;20195;-77
2022/03/01 06:23:32;;;;;;;0.90;0.90;;;-3.00;1.00;;;;;;5053434;28;20175;-77
2022/03/01 06:25:58;;;;;;;0.80;0.80;;;-3.20;1.00;;;;;;5055007;28;20179;-77
2022/03/01 06:28:24;;;;;;;0.87;0.87;;;-3.20;1.00;;;;;;5055269;28;20175;-77
2022/03/01 06:30:49;;;;;;;1.00;1.00;;;-2.90;1.00;;;;;;5053338;28;20560;-75
2022/03/01 06:33:18;;;;;;;0.90;0.90;;;-2.40;1.00;;;;;;5051376;28;20256;-75
2022/03/01 06:35:44;;;;;;;1.00;1.00;;;-2.30;1.00;;;;;;5051378;28;20203;-76
2022/03/01 06:38:09;;;;;;;0.80;0.80;;;-2.10;1.00;;;;;;5036536;28;20172;-75
2022/03/01 06:40:36;;;;;;;0.80;0.80;;;-1.90;99.90;;;;;;5043069;28;20213;-75
2022/03/01 06:43:03;;;;;;;0.90;0.90;;;-1.50;1.00;;;;;;5047263;28;20206;-76
2022/03/01 06:45:29;;;;;;;0.90;0.90;;;-1.40;1.00;;;;;;5051233;28;20270;-76
2022/03/01 06:47:54;;;;;;;0.80;0.80;;;-1.80;99.90;;;;;;5052459;28;20616;-78
2022/03/01 06:50:20;;;;;;;0.80;0.80;;;-1.50;99.90;;;;;;5051312;28;20195;-75
2022/03/01 06:52:46;;;;;;;0.80;0.80;;;-1.10;1.00;;;;;;5051645;28;20171;-76
2022/03/01 06:55:12;;;;;;;0.80;0.80;;;-0.60;1.00;;;;;;5050990;28;20218;-77
2022/03/01 06:57:40;;;;;;;0.80;0.80;;;-0.30;99.90;;;;;;5051986;28;20182;-76
2022/03/01 07:00:07;;;;;;;0.80;0.80;;;0.60;57.00;;;;;;5050666;28;20286;-77
2022/03/01 07:02:38;;;;;;;0.80;0.80;;;2.60;1.00;;;;;;5050609;28;20311;-76
2022/03/01 07:05:06;;;;;;;0.87;0.87;;;3.20;1.00;;;;;;5050695;28;20195;-76
2022/03/01 07:07:31;;;;;;;0.80;0.80;;;3.40;1.00;;;;;;5048132;28;20171;-77
2022/03/01 07:09:57;;;;;;;0.70;0.70;;;3.20;1.00;;;;;;5049933;28;20202;-76
2022/03/01 07:12:22;;;;;;;0.80;0.80;;;2.90;1.00;;;;;;5050863;28;20314;-76
2022/03/01 07:14:48;;;;;;;0.70;0.70;;;3.40;1.00;;;;;;5050676;28;20649;-74
2022/03/01 07:17:16;;;;;;;0.70;0.70;;;4.10;1.00;;;;;;5050978;28;20538;-75
2022/03/01 07:19:42;;;;;;;0.63;0.63;;;5.00;1.00;;;;;;5050411;28;20727;-75
2022/03/01 07:22:08;;;;;;;0.70;0.70;;;4.30;1.00;;;;;;5050436;28;20219;-74
2022/03/01 07:24:33;;;;;;;0.70;0.70;;;4.50;1.00;;;;;;5051057;28;20644;-77
2022/03/01 07:26:59;;;;;;;0.70;0.70;;;4.90;1.00;;;;;;5030036;28;20176;-76
2022/03/01 07:29:25;;;;;;;0.80;0.80;;;5.10;1.00;;;;;;5024535;28;20195;-74
2022/03/01 07:31:50;;;;;;;0.77;0.77;;;4.80;1.00;;;;;;5091221;23;20183;-74
2022/03/01 07:34:16;;;;;;;0.70;0.70;;;5.50;1.00;;;;;;5067310;28;20186;-75
2022/03/01 07:36:41;;;;;;;0.80;0.80;;;5.00;1.00;;;;;;5066385;28;20233;-76
2022/03/01 07:39:07;;;;;;;0.70;0.70;;;5.10;1.00;;;;;;5070181;28;20696;-74
2022/03/01 07:41:32;;;;;;;0.70;0.70;;;5.40;1.00;;;;;;5070974;28;20185;-75
2022/03/01 07:43:58;;;;;;;0.60;0.60;;;5.30;1.00;;;;;;5071007;28;20625;-74
2022/03/01 07:46:23;;;;;;;0.70;0.70;;;5.60;1.00;;;;;;5070905;28;20208;-75
2022/03/01 07:48:49;;;;;;;0.60;0.60;;;5.60;1.00;;;;;;5070505;28;20224;-74
2022/03/01 07:51:15;;;;;;;0.60;0.60;;;5.70;1.00;;;;;;5069912;28;20232;-74
2022/03/01 07:53:40;;;;;;;0.60;0.60;;;5.00;1.00;;;;;;5055624;28;20555;-74
2022/03/01 07:56:06;;;;;;;0.70;0.70;;;5.90;1.00;;;;;;5050382;28;20669;-74
2022/03/01 07:58:31;;;;;;;0.70;0.70;;;6.00;1.00;;;;;;5053090;28;20232;-72
2022/03/01 08:00:58;;;;;;;0.60;0.60;;;6.50;1.00;;;;;;5056337;28;20206;-73
2022/03/01 08:03:23;;;;;;;0.70;0.70;;;6.40;1.00;;;;;;5070384;28;20170;-75
2022/03/01 08:05:49;;;;;;;0.60;0.60;;;5.80;1.00;;;;;;5070315;28;20231;-74
2022/03/01 08:08:14;;;;;;;0.60;0.60;;;6.30;1.00;;;;;;5070710;28;20177;-74
2022/03/01 08:10:40;;;;;;;0.67;0.67;;;7.00;1.00;;;;;;5069972;28;20278;-74
2022/03/01 08:13:06;;;;;;;0.60;0.60;;;6.20;1.00;;;;;;5070482;28;20228;-74
2022/03/01 08:15:32;;;;;;;0.63;0.63;;;6.30;1.00;;;;;;5070215;28;20214;-74
2022/03/01 08:17:58;;;;;;;0.70;0.70;;;5.00;1.00;;;;;;5070183;28;20183;-74
2022/03/01 08:20:25;;;;;;;0.60;0.60;;;5.50;1.00;;;;;;5069576;28;20684;-73
2022/03/01 08:22:51;;;;;;;0.70;0.70;;;5.70;1.00;;;;;;5070445;28;20178;-73
2022/03/01 08:25:18;;;;;;;0.60;0.60;;;7.20;1.00;;;;;;5070488;28;20265;-75
2022/03/01 08:27:45;;;;;;;0.60;0.60;;;7.10;1.00;;;;;;5070258;28;20171;-74
2022/03/01 08:30:11;;;;;;;0.50;0.50;;;5.90;1.00;;;;;;5069652;28;20297;-73
2022/03/01 08:32:37;;;;;;;0.60;0.60;;;6.20;1.00;;;;;;5070076;28;20687;-74
2022/03/01 08:35:03;;;;;;;0.70;0.70;;;5.70;1.00;;;;;;5073489;28;20202;-75
2022/03/01 08:37:28;;;;;;;0.50;0.50;;;6.40;1.00;;;;;;5073634;28;20166;-76
2022/03/01 08:39:54;;;;;;;0.50;0.50;;;7.00;1.00;;;;;;5073238;28;20235;-75
2022/03/01 08:42:19;;;;;;;0.50;0.50;;;7.00;1.00;;;;;;5073905;28;20209;-75
2022/03/01 08:44:45;;;;;;;0.50;0.50;;;6.60;1.00;;;;;;5073813;28;20177;-76
2022/03/01 08:47:11;;;;;;;0.60;0.60;;;5.90;1.00;;;;;;5073682;28;20312;-74
2022/03/01 08:49:36;;;;;;;0.50;0.50;;;6.60;1.00;;;;;;5073297;28;20193;-74
2022/03/01 08:52:02;;;;;;;0.57;0.57;;;6.90;1.00;;;;;;5073492;28;20645;-76
2022/03/01 08:54:28;;;;;;;0.50;0.50;;;7.50;1.00;;;;;;5073544;28;20182;-74
2022/03/01 08:56:53;;;;;;;0.43;0.43;;;7.60;1.00;;;;;;5073584;28;20174;-75
2022/03/01 08:59:19;;;;;;;0.43;0.43;;;8.30;1.00;;;;;;5073018;28;20186;-75
2022/03/01 09:01:45;;;;;;;0.50;0.50;;;7.80;1.00;;;;;;5073210;28;20200;-74
2022/03/01 09:04:11;;;;;;;0.47;0.47;;;7.50;1.00;;;;;;5073370;28;20206;-74
2022/03/01 09:06:36;;;;;;;0.40;0.40;;;9.00;1.00;;;;;;5073732;28;20183;-74
2022/03/01 09:09:02;;;;;;;0.50;0.50;;;8.30;1.00;;;;;;5072588;28;20185;-75
2022/03/01 09:11:27;;;;;;;0.40;0.40;;;9.00;1.00;;;;;;5073498;28;20175;-76
2022/03/01 09:13:53;;;;;;;0.40;0.40;;;8.40;1.00;;;;;;5074652;28;20167;-74
2022/03/01 09:16:19;;;;;;;0.43;0.43;;;8.00;1.00;;;;;;5076547;28;20863;-75
2022/03/01 09:18:45;;;;;;;0.40;0.40;;;8.10;1.00;;;;;;5073255;28;20572;-75
2022/03/01 09:21:10;;;;;;;0.60;0.60;;;7.00;1.00;;;;;;5075866;28;20194;-75
2022/03/01 09:23:36;;;;;;;0.30;0.30;;;7.70;1.00;;;;;;5073183;28;20228;-76
2022/03/01 09:26:01;;;;;;;0.50;0.50;;;8.10;1.00;;;;;;5073073;28;20185;-77
2022/03/01 09:28:28;;;;;;;0.50;0.50;;;8.20;1.00;;;;;;5072817;28;20178;-75
2022/03/01 09:30:53;;;;;;;0.43;0.43;;;7.40;1.00;;;;;;5072313;28;20616;-76
2022/03/01 09:33:19;;;;;;;0.40;0.40;;;7.50;1.00;;;;;;5072449;28;20276;-76
2022/03/01 09:35:46;;;;;;;0.40;0.40;;;7.50;1.00;;;;;;5072967;28;20268;-76
2022/03/01 09:38:12;;;;;;;0.50;0.50;;;8.60;1.00;;;;;;5072878;28;20198;-76
2022/03/01 09:40:38;;;;;;;0.50;0.50;;;9.10;1.00;;;;;;5072346;28;20279;-76
2022/03/01 09:43:03;;;;;;;0.50;0.50;;;8.60;1.00;;;;;;5072660;28;20247;-75
2022/03/01 09:45:29;;;;;;;0.50;0.50;;;8.40;1.00;;;;;;5071545;28;20186;-75
2022/03/01 09:47:55;;;;;;;0.30;0.30;;;9.10;1.00;;;;;;5054562;28;20198;-75
2022/03/01 09:50:27;;;;;;;0.40;0.40;;;8.70;1.00;;;;;;5072307;28;20189;-75
2022/03/01 09:52:54;;;;;;;0.47;0.47;;;9.40;1.00;;;;;;5072931;28;20262;-75
2022/03/01 09:55:21;;;;;;;0.40;0.40;;;9.80;1.00;;;;;;5072547;28;20202;-75
2022/03/01 09:57:46;;;;;;;0.30;0.30;;;10.40;1.00;;;;;;5072647;28;20182;-75
2022/03/01 10:00:12;;;;;;;0.37;0.37;;;11.10;1.00;;;;;;5071434;28;20194;-75
2022/03/01 10:02:40;;;;;;;0.30;0.30;;;10.70;1.00;;;;;;5072279;28;20573;-76
2022/03/01 10:05:07;;;;;;;0.40;0.40;;;11.30;1.00;;;;;;5072453;28;20174;-76
2022/03/01 10:07:33;;;;;;;0.40;0.40;;;10.70;1.00;;;;;;5072160;28;20592;-76
2022/03/01 10:10:35;;;;;;;0.30;0.30;;;9.70;1.00;;;;;;5071307;28;20198;-76
2022/03/01 10:13:01;;;;;;;0.40;0.40;;;11.00;1.00;;;;;;5058827;28;20182;-75
2022/03/01 10:15:29;;;;;;;0.40;0.40;;;11.30;1.00;;;;;;5072292;28;20218;-76
2022/03/01 10:17:55;;;;;;;0.40;0.40;;;10.50;1.00;;;;;;5071840;28;20192;-76
2022/03/01 10:20:21;;;;;;;0.30;0.30;;;10.40;1.00;;;;;;5071207;28;20681;-75
2022/03/01 10:22:49;;;;;;;0.30;0.30;;;11.50;1.00;;;;;;5071449;28;20179;-76
2022/03/01 10:25:17;;;;;;;0.40;0.40;;;11.60;1.00;;;;;;5069522;28;20182;-75
2022/03/01 10:27:47;;;;;;;0.30;0.30;;;12.00;1.00;;;;;;5075047;28;20188;-76
2022/03/01 10:30:21;;;;;;;0.40;0.40;;;10.10;1.00;;;;;;5074712;28;20246;-75
2022/03/01 10:32:46;;;;;;;0.37;0.37;;;11.10;1.00;;;;;;5075340;28;20193;-76
2022/03/01 10:35:12;;;;;;;0.30;0.30;;;12.00;1.00;;;;;;5071692;28;20206;-76
2022/03/01 10:37:39;;;;;;;0.30;0.30;;;12.60;1.00;;;;;;5071413;28;20182;-75
2022/03/01 10:40:24;;;;;;;0.30;0.30;;;12.50;1.00;;;;;;5071048;28;20897;-75
2022/03/01 10:43:10;;;;;;;0.30;0.30;;;11.90;1.00;;;;;;5071563;28;20243;-72
2022/03/01 10:45:46;;;;;;;0.30;0.30;;;12.00;1.00;;;;;;5077704;28;20192;-75
2022/03/01 10:48:26;;;;;;;0.37;0.37;;;13.40;1.00;;;;;;5070802;28;20178;-75
2022/03/01 10:51:03;;;;;;;0.33;0.33;;;13.50;1.00;;;;;;5070503;28;20194;-74
2022/03/01 10:53:34;;;;;;;0.30;0.30;;;12.50;1.00;;;;;;5071317;28;20178;-74
2022/03/01 10:56:01;;;;;;;0.30;0.30;;;12.70;1.00;;;;;;5069832;28;20234;-74
2022/03/01 10:58:28;;;;;;;0.30;0.30;;;12.70;1.00;;;;;;5070533;28;20268;-76
2022/03/01 11:00:53;;;;;;;0.30;0.30;;;12.60;1.00;;;;;;5070386;28;20691;-74
2022/03/01 11:03:19;;;;;;;0.30;0.30;;;13.10;1.00;;;;;;5070874;28;20205;-75
2022/03/01 11:05:44;;;;;;;0.30;0.30;;;13.90;1.00;;;;;;5071294;28;20178;-76
2022/03/01 11:08:12;;;;;;;0.30;0.30;;;14.40;1.00;;;;;;5070924;28;20244;-75
2022/03/01 11:10:39;;;;;;;0.40;0.40;;;14.40;1.00;;;;;;5070634;28;20206;-75
2022/03/01 11:13:06;;;;;;;0.30;0.30;;;13.10;1.00;;;;;;5071171;28;20216;-75
2022/03/01 11:15:57;;;;;;;0.40;0.40;;;11.60;1.00;;;;;;5071266;28;20206;-76
2022/03/01 11:18:44;;;;;;;0.30;0.30;;;11.90;1.00;;;;;;5071112;28;20170;-75
2022/03/01 11:21:12;;;;;;;0.30;0.30;;;13.30;1.00;;;;;;5070336;28;20526;-75
2022/03/01 11:23:40;;;;;;;0.40;0.40;;;14.90;1.00;;;;;;5070661;28;20175;-74
2022/03/01 11:26:12;;;;;;;0.37;0.37;;;13.70;1.00;;;;;;5070266;28;20181;-74
2022/03/01 11:28:40;;;;;;;0.40;0.40;;;13.70;1.00;;;;;;5070304;28;20197;-75
2022/03/01 11:31:27;;;;;;;0.30;0.30;;;14.50;1.00;;;;;;5067492;28;20570;-74
2022/03/01 11:33:59;;;;;;;0.30;0.30;;;14.00;1.00;;;;;;5050280;28;20221;-75
2022/03/01 11:36:30;;;;;;;0.40;0.40;;;13.90;1.00;;;;;;5057493;28;20310;-75
2022/03/01 11:39:06;;;;;;;0.37;0.37;;;13.70;1.00;;;;;;5067672;28;20652;-73
2022/03/01 11:41:44;;;;;;;0.40;0.40;;;14.40;1.00;;;;;;5068169;28;20235;-73
2022/03/01 11:44:09;;;;;;;0.33;0.33;;;14.60;1.00;;;;;;5068458;28;20269;-74
2022/03/01 11:46:40;;;;;;;0.30;0.30;;;14.70;1.00;;;;;;5070010;28;20530;-74
2022/03/01 11:49:06;;;;;;;0.40;0.40;;;15.20;1.00;;;;;;5067771;28;20174;-74
2022/03/01 11:51:34;;;;;;;0.30;0.30;;;15.80;1.00;;;;;;5070213;28;20182;-74
2022/03/01 11:54:11;;;;;;;0.40;0.40;;;16.20;1.00;;;;;;5070173;28;20182;-73
2022/03/01 11:56:40;;;;;;;0.30;0.30;;;15.00;1.00;;;;;;5070276;28;20217;-72
2022/03/01 11:59:09;;;;;;;0.47;0.47;;;14.60;1.00;;;;;;5069903;28;20687;-73
2022/03/01 12:01:36;;;;;;;0.33;0.33;;;15.80;1.00;;;;;;5070615;28;20175;-73
2022/03/01 12:04:05;;;;;;;0.40;0.40;;;16.40;1.00;;;;;;5070241;28;20496;-73
2022/03/01 12:06:34;;;;;;;0.30;0.30;;;16.10;1.00;;;;;;5070403;28;20210;-77
2022/03/01 12:09:05;;;;;;;0.30;0.30;;;16.70;1.00;;;;;;5072909;28;20189;-73
2022/03/01 12:11:46;;;;;;;0.30;0.30;;;17.10;1.00;;;;;;5074321;28;20178;-74
2022/03/01 12:14:16;;;;;;;0.33;0.33;;;17.00;1.00;;;;;;5074132;28;20257;-75
2022/03/01 12:16:41;;;;;;;0.30;0.30;;;17.10;1.00;;;;;;5074392;28;20174;-74
2022/03/01 12:19:16;;;;;;;0.40;0.40;;;17.50;1.00;;;;;;5073832;28;20186;-73
2022/03/01 12:21:53;;;;;;;0.40;0.40;;;17.60;1.00;;;;;;5074241;28;20603;-75
2022/03/01 12:24:23;;;;;;;0.40;0.40;;;17.50;1.00;;;;;;5074042;28;20684;-74
2022/03/01 12:26:58;;;;;;;0.30;0.30;;;16.90;1.00;;;;;;5073965;28;20210;-74
2022/03/01 12:29:29;;;;;;;0.30;0.30;;;15.50;1.00;;;;;;5073386;28;20671;-75
2022/03/01 12:31:58;;;;;;;0.33;0.33;;;14.60;1.00;;;;;;5073894;28;20257;-75
2022/03/01 12:34:26;;;;;;;0.30;0.30;;;14.60;1.00;;;;;;5073819;28;20664;-75
2022/03/01 12:36:55;;;;;;;0.30;0.30;;;14.30;1.00;;;;;;5074024;28;20181;-74
2022/03/01 12:39:22;;;;;;;0.40;0.40;;;13.70;1.00;;;;;;5073433;28;20201;-75
2022/03/01 12:41:48;;;;;;;0.30;0.30;;;15.80;1.00;;;;;;5073994;28;20182;-74
2022/03/01 12:44:16;;;;;;;0.30;0.30;;;15.90;1.00;;;;;;5073484;28;20178;-76
2022/03/01 12:46:42;;;;;;;0.40;0.40;;;16.50;1.00;;;;;;5073606;28;20882;-75
2022/03/01 12:49:10;;;;;;;0.40;0.40;;;17.60;1.00;;;;;;5076292;28;20714;-78
2022/03/01 12:51:37;;;;;;;0.30;0.30;;;16.80;1.00;;;;;;5075907;28;20281;-76
2022/03/01 12:54:15;;;;;;;0.30;0.30;;;16.30;1.00;;;;;;5073399;28;20282;-76
2022/03/01 12:56:46;;;;;;;0.30;0.30;;;17.40;1.00;;;;;;5073533;28;20257;-76